Time;durP1;ratioP1;P1;durP2;ratioP2;P2;SDS_P1;SDS_P2;PMS_P1;PMS_P2;Temp;Humidity;BMP_temperature;BMP_pressure;BME280_temperature;BME280_humidity;BME280_pressure;Samples;Min_cycle;Max_cycle;Signal;HPM_P1;HPM_P2
2021/12/10 00:01:15;;;;;;;1.63;0.40;;;20.30;99.90;;;;;;5072821;28;20187;-69
2021/12/10 00:03:49;;;;;;;1.83;0.50;;;19.90;99.90;;;;;;5072233;28;20181;-69
2021/12/10 00:06:19;;;;;;;0.90;0.60;;;19.70;99.90;;;;;;5072995;28;20228;-69
2021/12/10 00:08:52;;;;;;;1.87;0.50;;;19.40;99.90;;;;;;5071587;28;20263;-68
2021/12/10 00:11:28;;;;;;;2.97;0.50;;;19.30;99.90;;;;;;5072147;28;20653;-69
2021/12/10 00:13:57;;;;;;;2.33;0.97;;;19.20;99.90;;;;;;5071059;28;20719;-69
2021/12/10 00:16:25;;;;;;;4.30;0.50;;;19.00;99.90;;;;;;5071743;28;20650;-69
2021/12/10 00:19:07;;;;;;;1.33;0.40;;;19.00;99.90;;;;;;5071577;28;20184;-69
2021/12/10 00:21:35;;;;;;;1.83;0.60;;;19.80;99.90;;;;;;5072309;28;20203;-70
2021/12/10 00:24:03;;;;;;;0.80;0.40;;;20.30;99.90;;;;;;5072213;28;20646;-69
2021/12/10 00:26:31;;;;;;;5.50;0.67;;;21.10;99.90;;;;;;5072079;28;20190;-69
2021/12/10 00:29:03;;;;;;;2.57;0.70;;;21.80;99.90;;;;;;5071576;28;20293;-70
2021/12/10 00:34:27;;;;;;;1.23;0.50;;;20.80;99.90;;;;;;5069220;28;20211;-68
2021/12/10 00:37:04;;;;;;;0.87;0.57;;;19.70;99.90;;;;;;5071709;28;20203;-68
2021/12/10 00:39:35;;;;;;;0.93;0.40;;;18.90;99.90;;;;;;5051949;28;20650;-68
2021/12/10 00:42:08;;;;;;;1.37;0.60;;;18.50;99.90;;;;;;5051884;28;20176;-69
2021/12/10 00:44:36;;;;;;;2.47;0.80;;;18.10;99.90;;;;;;5069582;28;20187;-69
2021/12/10 00:47:05;;;;;;;2.13;0.60;;;17.90;99.90;;;;;;5071548;28;20703;-69
2021/12/10 00:49:33;;;;;;;3.40;0.50;;;17.60;99.90;;;;;;5071595;28;20233;-69
2021/12/10 00:52:03;;;;;;;0.97;0.60;;;17.00;99.90;;;;;;5070603;28;20692;-68
2021/12/10 00:54:31;;;;;;;3.07;0.70;;;16.60;99.90;;;;;;5070570;28;20233;-68
2021/12/10 00:56:59;;;;;;;2.93;0.80;;;16.30;99.90;;;;;;5071028;28;20192;-69
2021/12/10 00:59:27;;;;;;;2.10;0.73;;;15.90;99.90;;;;;;5071382;28;20543;-67
2021/12/10 01:01:55;;;;;;;0.50;0.50;;;15.80;99.90;;;;;;5071497;28;20169;-68
2021/12/10 01:04:31;;;;;;;0.50;0.50;;;15.70;99.90;;;;;;5071624;28;20187;-70
2021/12/10 01:07:04;;;;;;;1.93;0.70;;;15.50;99.90;;;;;;5071267;28;20218;-69
2021/12/10 01:09:40;;;;;;;3.40;0.53;;;15.40;99.90;;;;;;5070954;28;20184;-69
2021/12/10 01:12:18;;;;;;;2.20;0.63;;;15.20;99.90;;;;;;5071395;28;20297;-68
2021/12/10 01:15:20;;;;;;;1.37;0.70;;;15.10;99.90;;;;;;5057995;28;20179;-70
2021/12/10 01:23:55;;;;;;;1.60;0.83;;;14.90;99.90;;;;;;5078456;28;20344;-69
2021/12/10 01:26:52;;;;;;;5.23;0.80;;;14.80;99.90;;;;;;5077772;28;20656;-70
2021/12/10 01:29:33;;;;;;;4.13;1.53;;;14.70;99.90;;;;;;5078185;28;20178;-72
2021/12/10 01:32:04;;;;;;;2.37;1.00;;;14.70;99.90;;;;;;5077884;28;20253;-70
2021/12/10 01:34:32;;;;;;;1.03;0.60;;;14.70;99.90;;;;;;5078029;28;20198;-69
2021/12/10 01:37:02;;;;;;;3.30;0.87;;;14.80;99.90;;;;;;5077515;28;20237;-69
2021/12/10 01:39:34;;;;;;;2.00;1.00;;;14.80;99.90;;;;;;5076608;28;20236;-68
2021/12/10 01:42:14;;;;;;;2.03;0.80;;;14.80;99.90;;;;;;5078179;28;20178;-69
2021/12/10 01:44:46;;;;;;;2.60;0.97;;;14.60;99.90;;;;;;5076455;28;20247;-69
2021/12/10 01:47:16;;;;;;;1.03;0.93;;;14.60;99.90;;;;;;5077861;28;20186;-69
2021/12/10 01:49:44;;;;;;;2.90;1.20;;;14.60;99.90;;;;;;5076607;28;20324;-69
2021/12/10 01:52:15;;;;;;;4.20;1.10;;;14.70;99.90;;;;;;5076588;28;20229;-69
2021/12/10 01:54:46;;;;;;;2.60;0.90;;;14.80;99.90;;;;;;5076082;28;20257;-69
2021/12/10 01:57:16;;;;;;;3.90;0.90;;;14.90;99.90;;;;;;5057616;28;20522;-69
2021/12/10 01:59:45;;;;;;;2.13;1.50;;;14.90;99.90;;;;;;5090111;28;20188;-70
2021/12/10 02:02:18;;;;;;;3.07;2.50;;;15.00;99.90;;;;;;5090082;28;20177;-71
2021/12/10 02:04:47;;;;;;;1.00;0.97;;;15.10;99.90;;;;;;5097959;28;20195;-69
2021/12/10 02:07:20;;;;;;;1.53;1.30;;;15.10;99.90;;;;;;5057629;28;20335;-69
2021/12/10 02:09:48;;;;;;;2.47;1.17;;;15.50;99.90;;;;;;5056467;28;20188;-69
2021/12/10 02:12:18;;;;;;;3.93;1.10;;;15.60;99.90;;;;;;5056249;28;20236;-69
2021/12/10 02:14:56;;;;;;;2.43;1.47;;;15.60;99.90;;;;;;5073515;28;20573;-68
2021/12/10 02:17:27;;;;;;;3.43;1.57;;;15.70;99.90;;;;;;5063722;28;20188;-69
2021/12/10 02:19:55;;;;;;;4.47;2.00;;;15.80;99.90;;;;;;5077384;28;20179;-69
2021/12/10 02:22:23;;;;;;;2.07;1.00;;;16.00;99.90;;;;;;5077634;28;20175;-69
2021/12/10 02:24:51;;;;;;;3.43;1.40;;;15.80;99.90;;;;;;5075057;28;20209;-67
2021/12/10 02:27:19;;;;;;;1.40;0.90;;;15.50;99.90;;;;;;5073146;28;20186;-68
2021/12/10 02:29:47;;;;;;;2.10;1.00;;;15.50;99.90;;;;;;5073372;28;20205;-68
2021/12/10 02:32:14;;;;;;;1.60;0.70;;;15.60;99.90;;;;;;5073958;28;20218;-68
2021/12/10 02:34:44;;;;;;;1.00;0.70;;;15.60;99.90;;;;;;5073935;28;20177;-67
2021/12/10 02:37:12;;;;;;;1.70;1.00;;;15.60;99.90;;;;;;5074144;28;20257;-67
2021/12/10 02:39:40;;;;;;;1.83;0.60;;;15.60;99.90;;;;;;5074162;28;20187;-68
2021/12/10 02:42:07;;;;;;;0.60;0.60;;;15.60;99.90;;;;;;5072775;28;20180;-68
2021/12/10 02:44:35;;;;;;;1.40;0.73;;;15.50;99.90;;;;;;5073840;28;20665;-68
2021/12/10 02:47:03;;;;;;;3.70;0.67;;;15.50;99.90;;;;;;5072511;28;20253;-68
2021/12/10 02:49:32;;;;;;;0.83;0.60;;;15.50;99.90;;;;;;5072709;28;20184;-68
2021/12/10 02:52:00;;;;;;;1.27;0.60;;;15.50;99.90;;;;;;5073918;28;20212;-68
2021/12/10 02:54:36;;;;;;;0.83;0.57;;;15.60;99.90;;;;;;5073650;28;20586;-68
2021/12/10 02:57:10;;;;;;;0.60;0.60;;;15.60;99.90;;;;;;5052833;28;20615;-68
2021/12/10 02:59:39;;;;;;;0.70;0.57;;;15.70;99.90;;;;;;5053726;28;20183;-69
2021/12/10 03:02:17;;;;;;;1.70;0.60;;;15.80;99.90;;;;;;5071434;28;20180;-70
2021/12/10 03:04:45;;;;;;;1.30;0.60;;;15.90;99.90;;;;;;5055330;28;20198;-68
2021/12/10 03:07:15;;;;;;;0.67;0.57;;;15.90;99.90;;;;;;5073695;28;20184;-69
2021/12/10 03:09:47;;;;;;;3.73;0.80;;;16.00;99.90;;;;;;5073406;28;20184;-68
2021/12/10 03:12:16;;;;;;;1.67;0.50;;;16.10;99.90;;;;;;5073548;28;20219;-69
2021/12/10 03:14:50;;;;;;;0.50;0.40;;;16.10;99.90;;;;;;5073066;28;20247;-67
2021/12/10 03:17:23;;;;;;;0.80;0.60;;;16.10;99.90;;;;;;5073569;28;20222;-67
2021/12/10 03:19:52;;;;;;;1.13;0.40;;;16.30;99.90;;;;;;5073393;28;20180;-68
2021/12/10 03:22:20;;;;;;;1.13;0.50;;;16.50;99.90;;;;;;5072729;28;20171;-68
2021/12/10 03:24:52;;;;;;;1.73;0.87;;;16.70;99.90;;;;;;5071658;28;20546;-68
2021/12/10 03:27:22;;;;;;;0.57;0.57;;;17.00;99.90;;;;;;5073243;28;20254;-69
2021/12/10 03:29:51;;;;;;;0.30;0.30;;;17.20;99.90;;;;;;5072806;28;20183;-69
2021/12/10 03:32:28;;;;;;;0.67;0.40;;;17.40;99.90;;;;;;5073012;28;20222;-67
2021/12/10 03:34:59;;;;;;;1.27;0.50;;;17.70;99.90;;;;;;5072732;28;20178;-68
2021/12/10 03:37:27;;;;;;;0.40;0.40;;;17.90;99.90;;;;;;5070229;28;20196;-68
2021/12/10 03:39:55;;;;;;;0.83;0.40;;;18.10;99.90;;;;;;5072605;28;20193;-68
2021/12/10 03:42:23;;;;;;;1.37;0.30;;;18.40;99.90;;;;;;5071458;28;20178;-67
2021/12/10 03:44:52;;;;;;;0.47;0.40;;;18.40;99.90;;;;;;5071539;28;20696;-68
2021/12/10 03:47:19;;;;;;;1.43;0.50;;;18.30;99.90;;;;;;5072604;28;20181;-68
2021/12/10 03:49:47;;;;;;;0.80;0.40;;;18.50;99.90;;;;;;5072548;28;20221;-68
2021/12/10 03:52:15;;;;;;;0.73;0.70;;;18.50;99.90;;;;;;5071363;28;20212;-68
2021/12/10 03:54:44;;;;;;;1.07;0.20;;;18.60;99.90;;;;;;5071105;28;20179;-69
2021/12/10 03:57:11;;;;;;;0.40;0.40;;;18.80;99.90;;;;;;5072583;28;20177;-68
2021/12/10 03:59:40;;;;;;;1.43;0.40;;;18.90;99.90;;;;;;5071146;28;20368;-68
2021/12/10 04:02:09;;;;;;;0.93;0.40;;;18.80;99.90;;;;;;5072554;28;20178;-68
2021/12/10 04:04:47;;;;;;;0.27;0.27;;;18.80;99.90;;;;;;5070897;28;20184;-69
2021/12/10 04:07:22;;;;;;;4.73;0.30;;;18.70;99.90;;;;;;5072536;28;20179;-69
2021/12/10 04:09:51;;;;;;;0.27;0.27;;;18.80;99.90;;;;;;5072296;28;20769;-70
2021/12/10 04:12:20;;;;;;;0.30;0.30;;;18.90;99.90;;;;;;5072250;28;20214;-69
2021/12/10 04:14:49;;;;;;;0.30;0.30;;;18.90;99.90;;;;;;5072125;28;20187;-69
2021/12/10 04:17:19;;;;;;;0.20;0.20;;;18.90;99.90;;;;;;5072259;28;20175;-69
2021/12/10 04:19:50;;;;;;;0.20;0.20;;;18.90;99.90;;;;;;5070740;28;20184;-69
2021/12/10 04:22:19;;;;;;;0.20;0.20;;;18.90;99.90;;;;;;5072223;28;20229;-69
2021/12/10 04:24:46;;;;;;;0.80;0.30;;;18.90;99.90;;;;;;5070852;28;20199;-69
2021/12/10 04:27:17;;;;;;;0.40;0.30;;;19.10;99.90;;;;;;5070771;28;20186;-69
2021/12/10 04:29:47;;;;;;;0.57;0.30;;;19.00;99.90;;;;;;5072031;28;20176;-70
2021/12/10 04:32:15;;;;;;;0.20;0.20;;;18.90;99.90;;;;;;5071923;28;20280;-68
2021/12/10 04:34:42;;;;;;;0.30;0.30;;;18.70;99.90;;;;;;5072315;28;20547;-69
2021/12/10 04:37:11;;;;;;;0.40;0.40;;;18.70;99.90;;;;;;5071780;28;20199;-68
2021/12/10 04:39:45;;;;;;;0.30;0.30;;;18.80;99.90;;;;;;5070961;28;20216;-69
2021/12/10 04:42:16;;;;;;;0.30;0.30;;;18.80;99.90;;;;;;5072008;28;20171;-69
2021/12/10 04:44:44;;;;;;;0.50;0.50;;;18.90;99.90;;;;;;5070649;28;20612;-68
2021/12/10 04:47:12;;;;;;;0.47;0.30;;;18.90;99.90;;;;;;5070118;28;20227;-68
2021/12/10 04:49:40;;;;;;;0.57;0.33;;;19.00;99.90;;;;;;5070397;28;20182;-68
2021/12/10 04:52:08;;;;;;;0.40;0.40;;;19.00;99.90;;;;;;5071078;28;20207;-68
2021/12/10 04:54:36;;;;;;;0.23;0.23;;;19.00;99.90;;;;;;5069109;28;20865;-68
2021/12/10 04:57:04;;;;;;;4.13;0.20;;;18.90;99.90;;;;;;5070769;28;20184;-68
2021/12/10 04:59:36;;;;;;;0.33;0.27;;;18.90;99.90;;;;;;5071077;28;20179;-69
2021/12/10 05:02:08;;;;;;;0.87;0.30;;;18.90;99.90;;;;;;5069781;28;20180;-68
2021/12/10 05:04:37;;;;;;;0.77;0.40;;;19.00;99.90;;;;;;5071511;28;20735;-68
2021/12/10 05:07:06;;;;;;;0.30;0.30;;;19.00;99.90;;;;;;5070291;28;20276;-69
2021/12/10 05:09:34;;;;;;;0.30;0.30;;;19.00;99.90;;;;;;5071689;28;20263;-69
2021/12/10 05:12:02;;;;;;;0.43;0.30;;;19.00;99.90;;;;;;5071336;28;20289;-69
2021/12/10 05:14:33;;;;;;;0.43;0.30;;;19.10;99.90;;;;;;5071495;28;20202;-68
2021/12/10 05:17:05;;;;;;;0.90;0.30;;;19.20;99.90;;;;;;5071402;28;20179;-69
2021/12/10 05:19:34;;;;;;;0.30;0.30;;;19.10;99.90;;;;;;5071303;28;20184;-68
2021/12/10 05:22:03;;;;;;;0.23;0.23;;;18.90;99.90;;;;;;5071172;28;20194;-69
2021/12/10 05:24:31;;;;;;;0.20;0.20;;;18.90;99.90;;;;;;5071492;28;20171;-69
2021/12/10 05:27:00;;;;;;;0.53;0.53;;;18.90;99.90;;;;;;5071267;28;20237;-70
2021/12/10 05:29:29;;;;;;;0.83;0.40;;;19.00;99.90;;;;;;5071506;28;20178;-69
2021/12/10 05:31:59;;;;;;;0.30;0.30;;;19.10;99.90;;;;;;5070988;28;20273;-68
2021/12/10 05:34:27;;;;;;;0.20;0.20;;;19.30;99.90;;;;;;5071237;28;20179;-69
2021/12/10 05:36:57;;;;;;;0.20;0.20;;;19.30;99.90;;;;;;5069985;28;20175;-69
2021/12/10 05:39:25;;;;;;;0.30;0.30;;;19.20;99.90;;;;;;5071227;28;20176;-69
2021/12/10 05:41:54;;;;;;;2.57;0.30;;;19.20;99.90;;;;;;5070683;28;20271;-69
2021/12/10 05:44:22;;;;;;;0.27;0.27;;;19.10;99.90;;;;;;5070566;28;20541;-69
2021/12/10 05:46:50;;;;;;;0.53;0.40;;;18.90;99.90;;;;;;5070475;28;20581;-69
2021/12/10 05:49:18;;;;;;;0.30;0.30;;;19.00;99.90;;;;;;5070562;28;20176;-69
2021/12/10 05:51:45;;;;;;;0.77;0.30;;;18.90;99.90;;;;;;5070126;28;20253;-68
2021/12/10 05:54:13;;;;;;;0.30;0.30;;;19.00;99.90;;;;;;5068877;28;20179;-69
2021/12/10 05:56:41;;;;;;;0.30;0.30;;;19.10;99.90;;;;;;5070397;28;20184;-69
2021/12/10 05:59:09;;;;;;;0.30;0.30;;;19.30;99.90;;;;;;5068279;28;20638;-69
2021/12/10 06:01:37;;;;;;;0.37;0.30;;;19.30;99.90;;;;;;5073913;28;20263;-69
2021/12/10 06:04:05;;;;;;;0.83;0.40;;;19.40;99.90;;;;;;5072974;28;20180;-69
2021/12/10 06:06:34;;;;;;;0.30;0.30;;;19.50;99.90;;;;;;5074182;28;20224;-70
2021/12/10 06:09:05;;;;;;;0.37;0.30;;;19.30;99.90;;;;;;5074724;28;20172;-69
2021/12/10 06:11:33;;;;;;;1.20;0.40;;;19.20;99.90;;;;;;5074382;28;20708;-69
2021/12/10 06:14:01;;;;;;;0.30;0.30;;;19.40;99.90;;;;;;5074813;28;20184;-69
2021/12/10 06:16:29;;;;;;;0.30;0.30;;;19.20;99.90;;;;;;5074686;28;20230;-68
2021/12/10 06:18:57;;;;;;;0.50;0.40;;;19.30;99.90;;;;;;5074631;28;20172;-70
2021/12/10 06:21:25;;;;;;;0.60;0.40;;;19.10;99.90;;;;;;5074642;28;20815;-69
2021/12/10 06:23:53;;;;;;;0.63;0.30;;;19.20;99.90;;;;;;5074480;28;20646;-68
2021/12/10 06:26:21;;;;;;;0.40;0.40;;;19.30;99.90;;;;;;5074442;28;20175;-71
2021/12/10 06:28:49;;;;;;;0.37;0.37;;;19.30;99.90;;;;;;5072848;28;20649;-68
2021/12/10 06:31:19;;;;;;;0.30;0.30;;;19.20;99.90;;;;;;5073657;28;20196;-69
2021/12/10 06:33:47;;;;;;;0.30;0.30;;;19.10;99.90;;;;;;5058329;28;20180;-69
2021/12/10 06:36:17;;;;;;;0.33;0.30;;;19.00;99.90;;;;;;5073867;28;20187;-69
2021/12/10 06:38:45;;;;;;;1.33;0.40;;;18.90;99.90;;;;;;5073576;28;20183;-69
2021/12/10 06:41:14;;;;;;;0.40;0.30;;;18.80;99.90;;;;;;5074108;28;20187;-69
2021/12/10 06:43:42;;;;;;;0.50;0.30;;;18.70;99.90;;;;;;5073801;28;20284;-70
2021/12/10 06:46:11;;;;;;;1.23;0.40;;;18.60;99.90;;;;;;5074036;28;20176;-69
2021/12/10 06:48:39;;;;;;;0.40;0.40;;;18.40;99.90;;;;;;5073660;28;20238;-69
2021/12/10 06:51:14;;;;;;;1.33;0.70;;;18.20;99.90;;;;;;5073768;28;20309;-69
2021/12/10 06:53:43;;;;;;;0.37;0.30;;;18.00;99.90;;;;;;5073544;28;20252;-69
2021/12/10 06:56:13;;;;;;;0.80;0.30;;;17.90;99.90;;;;;;5072934;28;20184;-69
2021/12/10 06:58:42;;;;;;;0.50;0.50;;;17.60;99.90;;;;;;5074011;28;20640;-68
2021/12/10 07:01:19;;;;;;;1.03;0.40;;;17.50;99.90;;;;;;5073464;28;20561;-68
2021/12/10 07:03:47;;;;;;;2.00;0.30;;;17.30;99.90;;;;;;5068677;28;20183;-69
2021/12/10 07:06:14;;;;;;;0.40;0.40;;;17.10;99.90;;;;;;5073291;28;20305;-69
2021/12/10 07:08:44;;;;;;;1.57;0.40;;;16.80;99.90;;;;;;5073778;28;20237;-68
2021/12/10 07:11:14;;;;;;;2.20;0.57;;;16.60;99.90;;;;;;5071522;28;20695;-67
2021/12/10 07:13:45;;;;;;;0.73;0.50;;;16.50;99.90;;;;;;5072923;28;20176;-68
2021/12/10 07:16:13;;;;;;;0.70;0.70;;;16.30;99.90;;;;;;5073160;28;20182;-68
2021/12/10 07:18:41;;;;;;;1.93;0.80;;;16.30;99.90;;;;;;5072161;28;20190;-68
2021/12/10 07:21:09;;;;;;;1.87;0.80;;;16.20;99.90;;;;;;5072157;28;20548;-68
2021/12/10 07:23:37;;;;;;;2.37;0.60;;;16.10;99.90;;;;;;5073129;28;20860;-68
2021/12/10 07:26:06;;;;;;;2.73;0.50;;;16.10;99.90;;;;;;5073057;28;20180;-68
2021/12/10 07:28:34;;;;;;;0.57;0.50;;;16.10;99.90;;;;;;5073303;28;20176;-68
2021/12/10 07:31:02;;;;;;;0.40;0.40;;;16.10;99.90;;;;;;5073266;28;20207;-69
2021/12/10 07:33:30;;;;;;;0.47;0.37;;;16.10;99.90;;;;;;5072847;28;20191;-69
2021/12/10 07:35:58;;;;;;;0.30;0.30;;;16.10;99.90;;;;;;5072755;28;20258;-68
2021/12/10 07:38:26;;;;;;;1.47;0.40;;;16.10;99.90;;;;;;5073202;28;20185;-69
2021/12/10 07:40:54;;;;;;;0.30;0.30;;;16.00;99.90;;;;;;5071726;28;20187;-68
2021/12/10 07:43:22;;;;;;;0.93;0.37;;;16.00;99.90;;;;;;5072969;28;20168;-70
2021/12/10 07:45:52;;;;;;;1.53;0.40;;;16.00;99.90;;;;;;5072404;28;20229;-69
2021/12/10 07:48:22;;;;;;;0.57;0.30;;;16.00;99.90;;;;;;5072595;28;20649;-69
2021/12/10 07:50:56;;;;;;;0.30;0.30;;;16.00;99.90;;;;;;5072599;28;20210;-68
2021/12/10 07:53:25;;;;;;;0.40;0.40;;;16.10;99.90;;;;;;5072376;28;20240;-68
2021/12/10 07:55:55;;;;;;;0.30;0.30;;;16.10;99.90;;;;;;5072177;28;20199;-67
2021/12/10 07:58:23;;;;;;;0.43;0.30;;;16.10;99.90;;;;;;5072816;28;20175;-68
2021/12/10 08:00:51;;;;;;;1.90;0.40;;;16.20;99.90;;;;;;5072193;28;20179;-68
2021/12/10 08:03:19;;;;;;;0.40;0.30;;;16.20;99.90;;;;;;5072734;28;20553;-68
2021/12/10 08:05:48;;;;;;;0.40;0.40;;;16.30;99.90;;;;;;5071526;28;20220;-68
2021/12/10 08:08:16;;;;;;;0.30;0.30;;;16.30;99.90;;;;;;5073251;28;20195;-68
2021/12/10 08:10:47;;;;;;;0.40;0.40;;;16.30;99.90;;;;;;5072334;28;20653;-68
2021/12/10 08:13:17;;;;;;;0.47;0.40;;;16.40;99.90;;;;;;5071225;28;20188;-68
2021/12/10 08:15:45;;;;;;;0.60;0.40;;;16.50;99.90;;;;;;5072112;28;20349;-68
2021/12/10 08:18:12;;;;;;;0.73;0.50;;;16.50;99.90;;;;;;5071791;28;20718;-68
2021/12/10 08:20:40;;;;;;;0.33;0.33;;;16.60;99.90;;;;;;5070798;28;20194;-68
2021/12/10 08:23:09;;;;;;;2.33;0.40;;;16.60;99.90;;;;;;5071445;28;20203;-68
2021/12/10 08:25:37;;;;;;;0.67;0.30;;;16.60;99.90;;;;;;5071855;28;20674;-68
2021/12/10 08:28:06;;;;;;;1.30;0.40;;;16.60;99.90;;;;;;5070926;28;20179;-68
2021/12/10 08:30:40;;;;;;;0.87;0.40;;;16.60;99.90;;;;;;5070777;28;20188;-69
2021/12/10 08:33:12;;;;;;;0.53;0.40;;;16.60;99.90;;;;;;5071502;28;20187;-68
2021/12/10 08:35:45;;;;;;;0.60;0.40;;;16.70;99.90;;;;;;5072010;28;20194;-69
2021/12/10 08:38:13;;;;;;;2.07;0.50;;;16.70;99.90;;;;;;5071969;28;20641;-68
2021/12/10 08:40:47;;;;;;;0.33;0.33;;;16.70;99.90;;;;;;5071853;28;20183;-68
2021/12/10 08:43:15;;;;;;;0.40;0.40;;;16.70;99.90;;;;;;5071400;28;20180;-69
2021/12/10 08:45:44;;;;;;;0.57;0.40;;;16.60;99.90;;;;;;5071926;28;20230;-68
2021/12/10 08:48:12;;;;;;;0.30;0.30;;;16.60;99.90;;;;;;5071769;28;20187;-69
2021/12/10 08:50:41;;;;;;;1.50;0.50;;;16.60;99.90;;;;;;5071761;28;20183;-68
2021/12/10 08:53:14;;;;;;;0.47;0.40;;;16.60;99.90;;;;;;5071219;28;20249;-68
2021/12/10 08:55:46;;;;;;;0.87;0.50;;;16.60;99.90;;;;;;5071526;28;20199;-68
2021/12/10 08:58:16;;;;;;;0.40;0.40;;;16.50;99.90;;;;;;5071791;28;20174;-68
2021/12/10 09:00:51;;;;;;;0.50;0.50;;;16.50;99.90;;;;;;5073091;28;20177;-70
2021/12/10 09:03:19;;;;;;;3.93;1.80;;;16.50;99.90;;;;;;5071217;28;20226;-67
2021/12/10 09:05:47;;;;;;;2.80;1.83;;;16.50;99.90;;;;;;5070761;28;20692;-69
2021/12/10 09:08:15;;;;;;;2.30;0.90;;;16.40;99.90;;;;;;5070026;28;20190;-68
2021/12/10 09:10:45;;;;;;;0.83;0.40;;;16.40;99.90;;;;;;5071553;28;20241;-68
2021/12/10 09:13:15;;;;;;;4.73;2.30;;;16.40;99.90;;;;;;5071240;28;20238;-68
2021/12/10 09:15:47;;;;;;;7.93;3.60;;;16.40;99.90;;;;;;5070664;28;20186;-69
2021/12/10 09:18:15;;;;;;;8.43;3.63;;;16.40;99.90;;;;;;5070817;28;20218;-68
2021/12/10 09:20:47;;;;;;;5.70;2.30;;;16.40;99.90;;;;;;5071262;28;20195;-68
2021/12/10 09:23:18;;;;;;;2.13;0.90;;;16.40;99.90;;;;;;5071485;28;20180;-69
2021/12/10 09:25:47;;;;;;;11.17;5.30;;;16.50;99.90;;;;;;5072451;28;20194;-69
2021/12/10 09:28:15;;;;;;;7.93;3.50;;;16.50;99.90;;;;;;5072574;28;20595;-68
2021/12/10 09:30:47;;;;;;;4.13;2.10;;;16.50;99.90;;;;;;5072761;28;20180;-69
2021/12/10 09:33:15;;;;;;;4.80;2.40;;;16.50;99.90;;;;;;5072814;28;20278;-69
2021/12/10 09:35:43;;;;;;;1.33;0.70;;;16.50;99.90;;;;;;5076838;28;20551;-68
2021/12/10 09:38:11;;;;;;;1.30;0.53;;;16.50;99.90;;;;;;5076146;28;20176;-69
2021/12/10 09:40:44;;;;;;;0.80;0.60;;;16.50;99.90;;;;;;5077042;28;20629;-69
2021/12/10 09:43:13;;;;;;;0.57;0.50;;;16.60;99.90;;;;;;5076809;28;20207;-67
2021/12/10 09:45:43;;;;;;;3.37;0.60;;;16.60;99.90;;;;;;5075631;28;20559;-71
2021/12/10 09:48:15;;;;;;;0.90;0.43;;;16.70;99.90;;;;;;5076493;28;20172;-69
2021/12/10 09:51:04;;;;;;;0.50;0.47;;;16.70;99.90;;;;;;5076777;28;20182;-70
2021/12/10 09:53:33;;;;;;;2.33;0.40;;;16.70;99.90;;;;;;5076491;28;20234;-69
2021/12/10 09:56:01;;;;;;;1.00;0.60;;;16.80;99.90;;;;;;5074924;28;20176;-70
2021/12/10 09:58:30;;;;;;;1.30;0.40;;;16.70;99.90;;;;;;5076477;28;20211;-69
2021/12/10 10:01:02;;;;;;;0.50;0.50;;;16.80;99.90;;;;;;5076658;28;20527;-69
2021/12/10 10:03:35;;;;;;;1.17;0.50;;;16.80;99.90;;;;;;5076548;28;20622;-69
2021/12/10 10:06:04;;;;;;;1.00;0.40;;;16.80;99.90;;;;;;5076215;28;20226;-68
2021/12/10 10:08:33;;;;;;;0.40;0.30;;;16.80;99.90;;;;;;5075723;28;20815;-69
2021/12/10 10:11:10;;;;;;;0.30;0.30;;;16.80;99.90;;;;;;5076349;28;20212;-69
2021/12/10 10:13:42;;;;;;;0.40;0.40;;;16.80;99.90;;;;;;5076428;28;20179;-69
2021/12/10 10:16:11;;;;;;;0.30;0.30;;;16.70;99.90;;;;;;5076392;28;20184;-68
2021/12/10 10:18:40;;;;;;;0.83;0.40;;;16.70;99.90;;;;;;5075912;28;20637;-69
2021/12/10 10:21:31;;;;;;;0.87;0.57;;;16.70;99.90;;;;;;5076371;28;20183;-67
2021/12/10 10:24:00;;;;;;;0.70;0.50;;;16.70;99.90;;;;;;5074484;28;20634;-69
2021/12/10 10:26:34;;;;;;;2.00;1.20;;;16.60;99.90;;;;;;5076000;28;20325;-73
2021/12/10 10:29:14;;;;;;;2.77;0.80;;;16.60;99.90;;;;;;5075793;28;20245;-69
2021/12/10 10:31:48;;;;;;;0.40;0.40;;;16.40;99.90;;;;;;5075329;28;20219;-68
2021/12/10 10:34:17;;;;;;;1.23;0.60;;;16.50;99.90;;;;;;5075025;28;20560;-69
2021/12/10 10:36:47;;;;;;;1.00;0.87;;;16.50;99.90;;;;;;5075679;28;20258;-69
2021/12/10 10:39:25;;;;;;;0.40;0.40;;;16.40;99.90;;;;;;5075891;28;20259;-69
2021/12/10 10:41:56;;;;;;;0.77;0.60;;;16.50;99.90;;;;;;5075992;28;20176;-68
2021/12/10 10:44:25;;;;;;;0.37;0.37;;;16.50;99.90;;;;;;5075114;28;20639;-68
2021/12/10 10:46:59;;;;;;;0.30;0.30;;;16.50;99.90;;;;;;5074555;28;20180;-68
2021/12/10 10:49:41;;;;;;;0.40;0.40;;;16.60;99.90;;;;;;5075381;28;20697;-67
2021/12/10 10:52:31;;;;;;;0.77;0.37;;;16.60;99.90;;;;;;5074744;28;20227;-68
2021/12/10 10:55:11;;;;;;;1.50;0.30;;;16.70;99.90;;;;;;5073365;28;20184;-69
2021/12/10 10:57:58;;;;;;;0.40;0.40;;;16.70;99.90;;;;;;5074053;28;20180;-69
2021/12/10 11:00:58;;;;;;;0.40;0.40;;;16.60;99.90;;;;;;5075736;28;20180;-69
2021/12/10 11:03:36;;;;;;;0.50;0.50;;;16.70;99.90;;;;;;5075328;28;20642;-68
2021/12/10 11:06:13;;;;;;;0.57;0.30;;;16.70;99.90;;;;;;5075273;28;20212;-67
2021/12/10 11:08:48;;;;;;;0.37;0.37;;;16.70;99.90;;;;;;5075826;28;20183;-69
2021/12/10 11:11:18;;;;;;;0.37;0.37;;;16.70;99.90;;;;;;5073905;28;20414;-68
2021/12/10 11:13:49;;;;;;;0.77;0.40;;;16.70;99.90;;;;;;5075610;28;20669;-69
2021/12/10 11:16:21;;;;;;;0.30;0.30;;;16.70;99.90;;;;;;5075490;28;20180;-68
2021/12/10 11:18:54;;;;;;;1.37;0.47;;;16.60;99.90;;;;;;5075460;28;20702;-68
2021/12/10 11:22:01;;;;;;;0.40;0.40;;;16.70;99.90;;;;;;5075151;28;20213;-68
2021/12/10 11:24:42;;;;;;;0.83;0.40;;;16.70;99.90;;;;;;5052926;28;20207;-69
2021/12/10 11:27:15;;;;;;;1.10;0.50;;;16.70;99.90;;;;;;5055446;28;20181;-68
2021/12/10 11:29:47;;;;;;;0.50;0.40;;;16.70;99.90;;;;;;5055723;28;20725;-68
2021/12/10 11:32:21;;;;;;;0.60;0.50;;;16.60;99.90;;;;;;5055489;28;20285;-68
2021/12/10 11:35:05;;;;;;;0.50;0.50;;;16.70;99.90;;;;;;5069162;28;20184;-68
2021/12/10 11:37:57;;;;;;;0.73;0.40;;;16.70;99.90;;;;;;5075045;28;20251;-69
2021/12/10 11:40:52;;;;;;;0.30;0.30;;;16.70;99.90;;;;;;5074958;28;20256;-68
2021/12/10 11:44:19;;;;;;;1.60;0.30;;;16.70;99.90;;;;;;5072785;28;20600;-69
2021/12/10 11:49:35;;;;;;;1.90;0.47;;;16.70;99.90;;;;;;5073685;28;20187;-69
2021/12/10 11:52:07;;;;;;;0.40;0.40;;;16.70;99.90;;;;;;5074578;28;20574;-69
2021/12/10 11:54:41;;;;;;;0.50;0.50;;;16.70;99.90;;;;;;5074130;28;20180;-68
2021/12/10 11:57:24;;;;;;;0.30;0.30;;;16.70;99.90;;;;;;5071905;28;20186;-69
2021/12/10 12:00:00;;;;;;;0.40;0.40;;;16.80;99.90;;;;;;5074137;28;20190;-69
2021/12/10 12:02:33;;;;;;;0.30;0.30;;;16.80;99.90;;;;;;5074575;28;20174;-69
2021/12/10 12:05:13;;;;;;;0.30;0.30;;;16.80;99.90;;;;;;5073816;28;20214;-68
2021/12/10 12:07:47;;;;;;;2.20;0.40;;;16.80;99.90;;;;;;5074124;28;20172;-70
2021/12/10 12:10:23;;;;;;;0.33;0.33;;;16.80;99.90;;;;;;5074230;28;20179;-69
2021/12/10 12:15:49;;;;;;;2.00;0.40;;;16.80;99.90;;;;;;5073219;28;20180;-70
2021/12/10 12:18:30;;;;;;;0.30;0.23;;;16.70;99.90;;;;;;5074524;28;20228;-68
2021/12/10 12:27:14;;;;;;;3.23;0.40;;;16.70;99.90;;;;;;5073826;28;20199;-68
2021/12/10 12:29:55;;;;;;;0.57;0.30;;;16.70;99.90;;;;;;5072502;28;20176;-69
2021/12/10 12:32:38;;;;;;;0.33;0.33;;;16.60;99.90;;;;;;5073735;28;20207;-69
2021/12/10 12:35:25;;;;;;;0.73;0.30;;;16.60;99.90;;;;;;5073056;28;20182;-68
2021/12/10 12:38:20;;;;;;;0.40;0.40;;;16.70;99.90;;;;;;5073730;28;20183;-68
2021/12/10 12:41:04;;;;;;;0.83;0.40;;;16.70;99.90;;;;;;5073799;28;20215;-70
2021/12/10 12:43:32;;;;;;;0.30;0.30;;;16.60;99.90;;;;;;5073188;28;20180;-69
2021/12/10 12:46:08;;;;;;;0.80;0.30;;;16.50;99.90;;;;;;5073474;28;20180;-69
2021/12/10 12:48:52;;;;;;;0.80;0.40;;;16.50;99.90;;;;;;5073528;28;20191;-70
2021/12/10 12:51:21;;;;;;;2.60;0.30;;;16.50;99.90;;;;;;5072704;28;20590;-69
2021/12/10 12:53:50;;;;;;;2.67;0.40;;;16.50;99.90;;;;;;5073322;28;20180;-70
2021/12/10 12:56:20;;;;;;;0.30;0.30;;;16.50;99.90;;;;;;5073325;28;20183;-68
2021/12/10 12:59:02;;;;;;;0.53;0.30;;;16.40;99.90;;;;;;5073439;28;20656;-69
2021/12/10 13:01:45;;;;;;;0.30;0.30;;;16.40;99.90;;;;;;5073392;28;20201;-70
2021/12/10 13:04:25;;;;;;;1.17;0.40;;;16.50;99.90;;;;;;5073009;28;20176;-68
2021/12/10 13:07:01;;;;;;;0.47;0.37;;;16.40;99.90;;;;;;5071883;28;20208;-68
2021/12/10 13:09:38;;;;;;;0.33;0.33;;;16.40;99.90;;;;;;5072913;28;20242;-68
2021/12/10 13:12:24;;;;;;;0.57;0.30;;;16.50;99.90;;;;;;5073092;28;20319;-69
2021/12/10 13:14:59;;;;;;;0.67;0.30;;;16.40;99.90;;;;;;5072747;28;20226;-69
2021/12/10 13:17:37;;;;;;;0.37;0.37;;;16.40;99.90;;;;;;5071889;28;20648;-69
2021/12/10 13:20:10;;;;;;;0.50;0.30;;;16.30;99.90;;;;;;5073167;28;20222;-69
2021/12/10 13:22:37;;;;;;;0.30;0.30;;;16.30;99.90;;;;;;5071780;28;20541;-69
2021/12/10 13:25:10;;;;;;;0.30;0.30;;;16.30;99.90;;;;;;5072807;28;20183;-69
2021/12/10 13:27:40;;;;;;;0.67;0.47;;;16.30;99.90;;;;;;5073147;28;20176;-69
2021/12/10 13:30:12;;;;;;;0.30;0.30;;;16.30;99.90;;;;;;5070727;28;20197;-70
2021/12/10 13:32:42;;;;;;;0.33;0.30;;;16.30;99.90;;;;;;5072488;28;20211;-69